sensor_id;sensor_type;location;lat;lon;timestamp;temperature;humidity
24452;DHT22;13350;50.984;5.822;2023-04-03T00:02:17;0.90;99.90
24452;DHT22;13350;50.984;5.822;2023-04-03T00:04:44;0.90;99.90
24452;DHT22;13350;50.984;5.822;2023-04-03T00:07:11;0.80;99.90
24452;DHT22;13350;50.984;5.822;2023-04-03T00:09:40;0.80;99.90
24452;DHT22;13350;50.984;5.822;2023-04-03T00:12:07;0.80;99.90
24452;DHT22;13350;50.984;5.822;2023-04-03T00:14:35;0.80;99.90
24452;DHT22;13350;50.984;5.822;2023-04-03T00:17:02;0.80;99.90
24452;DHT22;13350;50.984;5.822;2023-04-03T00:19:31;0.80;99.90
24452;DHT22;13350;50.984;5.822;2023-04-03T00:21:58;0.70;99.90
24452;DHT22;13350;50.984;5.822;2023-04-03T00:24:25;0.60;99.90
24452;DHT22;13350;50.984;5.822;2023-04-03T00:26:53;0.60;99.90
24452;DHT22;13350;50.984;5.822;2023-04-03T00:29:20;0.60;99.90
24452;DHT22;13350;50.984;5.822;2023-04-03T00:31:47;0.60;99.90
24452;DHT22;13350;50.984;5.822;2023-04-03T00:34:14;0.50;99.90
24452;DHT22;13350;50.984;5.822;2023-04-03T00:36:43;0.40;99.90
24452;DHT22;13350;50.984;5.822;2023-04-03T00:39:10;0.50;99.90
24452;DHT22;13350;50.984;5.822;2023-04-03T00:41:37;0.50;99.90
24452;DHT22;13350;50.984;5.822;2023-04-03T00:44:22;0.50;99.90
24452;DHT22;13350;50.984;5.822;2023-04-03T00:46:49;0.60;99.90
24452;DHT22;13350;50.984;5.822;2023-04-03T00:49:16;0.60;99.90
24452;DHT22;13350;50.984;5.822;2023-04-03T00:51:45;0.60;99.90
24452;DHT22;13350;50.984;5.822;2023-04-03T00:54:13;0.60;99.90
24452;DHT22;13350;50.984;5.822;2023-04-03T00:56:40;0.60;99.90
24452;DHT22;13350;50.984;5.822;2023-04-03T00:59:10;0.60;99.90
24452;DHT22;13350;50.984;5.822;2023-04-03T01:01:38;0.70;99.90
24452;DHT22;13350;50.984;5.822;2023-04-03T01:04:24;0.70;99.90
24452;DHT22;13350;50.984;5.822;2023-04-03T01:06:55;0.60;99.90
24452;DHT22;13350;50.984;5.822;2023-04-03T01:09:23;0.60;99.90
24452;DHT22;13350;50.984;5.822;2023-04-03T01:11:50;0.60;99.90
24452;DHT22;13350;50.984;5.822;2023-04-03T01:14:17;0.50;99.90
24452;DHT22;13350;50.984;5.822;2023-04-03T01:16:52;0.50;99.90
24452;DHT22;13350;50.984;5.822;2023-04-03T01:19:22;0.40;99.90
24452;DHT22;13350;50.984;5.822;2023-04-03T01:22:05;0.40;99.90
24452;DHT22;13350;50.984;5.822;2023-04-03T01:24:38;0.30;99.90
24452;DHT22;13350;50.984;5.822;2023-04-03T01:27:08;0.30;99.90
24452;DHT22;13350;50.984;5.822;2023-04-03T01:29:36;0.20;99.90
24452;DHT22;13350;50.984;5.822;2023-04-03T01:32:06;0.20;99.90
24452;DHT22;13350;50.984;5.822;2023-04-03T01:34:33;0.10;99.90
24452;DHT22;13350;50.984;5.822;2023-04-03T01:37:00;0.10;99.90
24452;DHT22;13350;50.984;5.822;2023-04-03T01:39:28;0.10;99.90
24452;DHT22;13350;50.984;5.822;2023-04-03T01:41:55;0.10;99.90
24452;DHT22;13350;50.984;5.822;2023-04-03T01:44:22;0.10;99.90
24452;DHT22;13350;50.984;5.822;2023-04-03T01:46:49;0.00;99.90
24452;DHT22;13350;50.984;5.822;2023-04-03T01:49:18;-0.10;99.90
24452;DHT22;13350;50.984;5.822;2023-04-03T01:51:45;-0.10;99.90
24452;DHT22;13350;50.984;5.822;2023-04-03T01:54:12;-0.20;99.90
24452;DHT22;13350;50.984;5.822;2023-04-03T01:56:40;-0.30;99.90
24452;DHT22;13350;50.984;5.822;2023-04-03T01:59:07;-0.30;99.90
24452;DHT22;13350;50.984;5.822;2023-04-03T02:01:34;-0.40;99.90
24452;DHT22;13350;50.984;5.822;2023-04-03T02:04:01;-0.40;99.90
24452;DHT22;13350;50.984;5.822;2023-04-03T02:06:30;-0.30;99.90
24452;DHT22;13350;50.984;5.822;2023-04-03T02:08:57;-0.30;99.90
24452;DHT22;13350;50.984;5.822;2023-04-03T02:11:24;-0.20;99.90
24452;DHT22;13350;50.984;5.822;2023-04-03T02:13:52;-0.30;99.90
24452;DHT22;13350;50.984;5.822;2023-04-03T02:16:19;-0.30;99.90
24452;DHT22;13350;50.984;5.822;2023-04-03T02:18:46;-0.40;99.90
24452;DHT22;13350;50.984;5.822;2023-04-03T02:21:13;-0.50;99.90
24452;DHT22;13350;50.984;5.822;2023-04-03T02:23:42;-0.50;99.90
24452;DHT22;13350;50.984;5.822;2023-04-03T02:26:11;-0.50;99.90
24452;DHT22;13350;50.984;5.822;2023-04-03T02:28:39;-0.60;99.90
24452;DHT22;13350;50.984;5.822;2023-04-03T02:31:07;-0.60;99.90
24452;DHT22;13350;50.984;5.822;2023-04-03T02:33:35;-0.60;99.90
24452;DHT22;13350;50.984;5.822;2023-04-03T02:36:03;-0.60;99.90
24452;DHT22;13350;50.984;5.822;2023-04-03T02:38:31;-0.70;99.90
24452;DHT22;13350;50.984;5.822;2023-04-03T02:41:01;-0.70;99.90
24452;DHT22;13350;50.984;5.822;2023-04-03T02:43:28;-0.70;99.90
24452;DHT22;13350;50.984;5.822;2023-04-03T02:45:55;-0.70;99.90
24452;DHT22;13350;50.984;5.822;2023-04-03T02:48:23;-0.60;99.90
24452;DHT22;13350;50.984;5.822;2023-04-03T02:50:51;-0.50;99.90
24452;DHT22;13350;50.984;5.822;2023-04-03T02:53:18;-0.40;99.90
24452;DHT22;13350;50.984;5.822;2023-04-03T02:55:46;-0.40;99.90
24452;DHT22;13350;50.984;5.822;2023-04-03T02:58:14;-0.40;99.90
24452;DHT22;13350;50.984;5.822;2023-04-03T03:00:42;-0.30;99.90
24452;DHT22;13350;50.984;5.822;2023-04-03T03:03:09;-0.30;99.90
24452;DHT22;13350;50.984;5.822;2023-04-03T03:05:36;-0.20;99.90
24452;DHT22;13350;50.984;5.822;2023-04-03T03:08:04;-0.30;99.90
24452;DHT22;13350;50.984;5.822;2023-04-03T03:10:31;-0.20;99.90
24452;DHT22;13350;50.984;5.822;2023-04-03T03:12:58;-0.20;99.90
24452;DHT22;13350;50.984;5.822;2023-04-03T03:15:26;-0.20;99.90
24452;DHT22;13350;50.984;5.822;2023-04-03T03:17:54;-0.20;99.90
24452;DHT22;13350;50.984;5.822;2023-04-03T03:20:21;-0.20;99.90
24452;DHT22;13350;50.984;5.822;2023-04-03T03:22:48;-0.20;99.90
24452;DHT22;13350;50.984;5.822;2023-04-03T03:25:15;-0.30;99.90
24452;DHT22;13350;50.984;5.822;2023-04-03T03:27:42;-0.30;99.90
24452;DHT22;13350;50.984;5.822;2023-04-03T03:30:10;-0.20;99.90
24452;DHT22;13350;50.984;5.822;2023-04-03T03:32:38;-0.20;99.90
24452;DHT22;13350;50.984;5.822;2023-04-03T03:35:06;-0.30;99.90
24452;DHT22;13350;50.984;5.822;2023-04-03T03:37:33;-0.30;99.90
24452;DHT22;13350;50.984;5.822;2023-04-03T03:40:00;-0.40;99.90
24452;DHT22;13350;50.984;5.822;2023-04-03T03:42:28;-0.30;99.90
24452;DHT22;13350;50.984;5.822;2023-04-03T03:44:55;-0.20;99.90
24452;DHT22;13350;50.984;5.822;2023-04-03T03:47:22;-0.20;99.90
24452;DHT22;13350;50.984;5.822;2023-04-03T03:49:51;-0.30;99.90
24452;DHT22;13350;50.984;5.822;2023-04-03T03:52:18;-0.30;99.90
24452;DHT22;13350;50.984;5.822;2023-04-03T03:54:45;-0.30;99.90
24452;DHT22;13350;50.984;5.822;2023-04-03T03:57:12;-0.40;99.90
24452;DHT22;13350;50.984;5.822;2023-04-03T03:59:40;-0.50;99.90
24452;DHT22;13350;50.984;5.822;2023-04-03T04:02:08;-0.50;99.90
24452;DHT22;13350;50.984;5.822;2023-04-03T04:04:35;-0.60;99.90
24452;DHT22;13350;50.984;5.822;2023-04-03T04:07:04;-0.70;99.90
24452;DHT22;13350;50.984;5.822;2023-04-03T04:09:31;-0.70;99.90
24452;DHT22;13350;50.984;5.822;2023-04-03T04:11:58;-0.60;99.90
24452;DHT22;13350;50.984;5.822;2023-04-03T04:14:25;-0.60;99.90
24452;DHT22;13350;50.984;5.822;2023-04-03T04:16:53;-0.70;99.90
24452;DHT22;13350;50.984;5.822;2023-04-03T04:19:20;-0.80;99.90
24452;DHT22;13350;50.984;5.822;2023-04-03T04:21:47;-0.80;99.90
24452;DHT22;13350;50.984;5.822;2023-04-03T04:24:16;-0.80;99.90
24452;DHT22;13350;50.984;5.822;2023-04-03T04:26:43;-0.80;99.90
24452;DHT22;13350;50.984;5.822;2023-04-03T04:29:10;-0.90;99.90
24452;DHT22;13350;50.984;5.822;2023-04-03T04:31:37;-0.80;99.90
24452;DHT22;13350;50.984;5.822;2023-04-03T04:34:05;-0.90;99.90
24452;DHT22;13350;50.984;5.822;2023-04-03T04:36:32;-0.90;99.90
24452;DHT22;13350;50.984;5.822;2023-04-03T04:39:00;-0.90;99.90
24452;DHT22;13350;50.984;5.822;2023-04-03T04:41:28;-0.90;99.90
24452;DHT22;13350;50.984;5.822;2023-04-03T04:43:55;-0.90;99.90
24452;DHT22;13350;50.984;5.822;2023-04-03T04:46:23;-0.90;99.90
24452;DHT22;13350;50.984;5.822;2023-04-03T04:48:50;-0.90;99.90
24452;DHT22;13350;50.984;5.822;2023-04-03T04:51:17;-0.90;99.90
24452;DHT22;13350;50.984;5.822;2023-04-03T04:53:44;-0.90;99.90
24452;DHT22;13350;50.984;5.822;2023-04-03T04:56:12;-0.60;99.90
24452;DHT22;13350;50.984;5.822;2023-04-03T04:58:40;-0.60;99.90
24452;DHT22;13350;50.984;5.822;2023-04-03T05:01:09;-0.50;99.90
24452;DHT22;13350;50.984;5.822;2023-04-03T05:03:37;-0.40;99.90
24452;DHT22;13350;50.984;5.822;2023-04-03T05:06:04;-0.50;99.90
24452;DHT22;13350;50.984;5.822;2023-04-03T05:08:32;-0.50;99.90
24452;DHT22;13350;50.984;5.822;2023-04-03T05:10:59;-0.50;99.90
24452;DHT22;13350;50.984;5.822;2023-04-03T05:13:26;-0.50;99.90
24452;DHT22;13350;50.984;5.822;2023-04-03T05:15:55;-0.60;99.90
24452;DHT22;13350;50.984;5.822;2023-04-03T05:18:22;-0.60;99.90
24452;DHT22;13350;50.984;5.822;2023-04-03T05:20:49;-0.70;99.90
24452;DHT22;13350;50.984;5.822;2023-04-03T05:23:17;-0.50;99.90
24452;DHT22;13350;50.984;5.822;2023-04-03T05:25:45;-0.30;99.90
24452;DHT22;13350;50.984;5.822;2023-04-03T05:28:12;-0.30;99.90
24452;DHT22;13350;50.984;5.822;2023-04-03T05:30:40;-0.20;99.90
24452;DHT22;13350;50.984;5.822;2023-04-03T05:33:09;0.00;99.90
24452;DHT22;13350;50.984;5.822;2023-04-03T05:35:37;0.00;99.90
24452;DHT22;13350;50.984;5.822;2023-04-03T05:38:05;0.10;99.90
24452;DHT22;13350;50.984;5.822;2023-04-03T05:40:32;0.10;99.90
24452;DHT22;13350;50.984;5.822;2023-04-03T05:42:59;0.10;99.90
24452;DHT22;13350;50.984;5.822;2023-04-03T05:45:26;0.20;99.90
24452;DHT22;13350;50.984;5.822;2023-04-03T05:47:54;0.60;99.90
24452;DHT22;13350;50.984;5.822;2023-04-03T05:50:22;0.90;99.90
24452;DHT22;13350;50.984;5.822;2023-04-03T05:52:51;1.20;99.90
24452;DHT22;13350;50.984;5.822;2023-04-03T05:55:19;1.50;99.90
24452;DHT22;13350;50.984;5.822;2023-04-03T05:57:47;1.70;99.90
24452;DHT22;13350;50.984;5.822;2023-04-03T06:00:15;1.90;99.90
24452;DHT22;13350;50.984;5.822;2023-04-03T06:02:43;2.10;99.90
24452;DHT22;13350;50.984;5.822;2023-04-03T06:05:10;2.40;99.90
24452;DHT22;13350;50.984;5.822;2023-04-03T06:07:40;2.60;99.90
24452;DHT22;13350;50.984;5.822;2023-04-03T06:10:08;2.80;99.90
24452;DHT22;13350;50.984;5.822;2023-04-03T06:12:35;3.00;99.90
24452;DHT22;13350;50.984;5.822;2023-04-03T06:15:03;3.20;99.90
24452;DHT22;13350;50.984;5.822;2023-04-03T06:17:31;3.40;99.90
24452;DHT22;13350;50.984;5.822;2023-04-03T06:19:58;3.30;99.90
24452;DHT22;13350;50.984;5.822;2023-04-03T06:22:26;3.30;99.90
24452;DHT22;13350;50.984;5.822;2023-04-03T06:24:57;3.30;99.90
24452;DHT22;13350;50.984;5.822;2023-04-03T06:27:24;3.30;99.90
24452;DHT22;13350;50.984;5.822;2023-04-03T06:29:51;3.40;99.90
24452;DHT22;13350;50.984;5.822;2023-04-03T06:32:18;3.70;99.90
24452;DHT22;13350;50.984;5.822;2023-04-03T06:34:45;3.90;99.90
24452;DHT22;13350;50.984;5.822;2023-04-03T06:37:15;4.10;99.90
24452;DHT22;13350;50.984;5.822;2023-04-03T06:39:43;4.20;99.90
24452;DHT22;13350;50.984;5.822;2023-04-03T06:42:12;4.40;99.90
24452;DHT22;13350;50.984;5.822;2023-04-03T06:44:39;4.70;99.90
24452;DHT22;13350;50.984;5.822;2023-04-03T06:47:08;4.70;99.90
24452;DHT22;13350;50.984;5.822;2023-04-03T06:49:36;4.60;99.90
24452;DHT22;13350;50.984;5.822;2023-04-03T06:52:04;4.50;99.90
24452;DHT22;13350;50.984;5.822;2023-04-03T06:54:31;4.10;99.90
24452;DHT22;13350;50.984;5.822;2023-04-03T06:56:59;3.80;99.90
24452;DHT22;13350;50.984;5.822;2023-04-03T06:59:27;3.60;99.90
24452;DHT22;13350;50.984;5.822;2023-04-03T07:01:55;3.50;99.90
24452;DHT22;13350;50.984;5.822;2023-04-03T07:04:22;3.50;99.90
24452;DHT22;13350;50.984;5.822;2023-04-03T07:06:49;3.50;99.90
24452;DHT22;13350;50.984;5.822;2023-04-03T07:09:16;3.50;99.90
24452;DHT22;13350;50.984;5.822;2023-04-03T07:11:44;3.60;99.90
24452;DHT22;13350;50.984;5.822;2023-04-03T07:14:11;3.70;99.90
24452;DHT22;13350;50.984;5.822;2023-04-03T07:16:40;4.10;99.90
24452;DHT22;13350;50.984;5.822;2023-04-03T07:19:07;4.50;99.90
24452;DHT22;13350;50.984;5.822;2023-04-03T07:21:35;4.40;99.90
24452;DHT22;13350;50.984;5.822;2023-04-03T07:24:02;4.50;99.90
24452;DHT22;13350;50.984;5.822;2023-04-03T07:26:30;4.70;99.90
24452;DHT22;13350;50.984;5.822;2023-04-03T07:28:57;4.90;99.90
24452;DHT22;13350;50.984;5.822;2023-04-03T07:31:25;4.90;99.90
24452;DHT22;13350;50.984;5.822;2023-04-03T07:33:53;4.80;99.90
24452;DHT22;13350;50.984;5.822;2023-04-03T07:36:22;4.50;99.90
24452;DHT22;13350;50.984;5.822;2023-04-03T07:38:50;4.40;99.90
24452;DHT22;13350;50.984;5.822;2023-04-03T07:41:19;4.30;99.90
24452;DHT22;13350;50.984;5.822;2023-04-03T07:43:48;4.30;99.90
24452;DHT22;13350;50.984;5.822;2023-04-03T07:46:16;4.30;99.90
24452;DHT22;13350;50.984;5.822;2023-04-03T07:48:44;4.30;99.90
24452;DHT22;13350;50.984;5.822;2023-04-03T07:51:13;4.60;99.90
24452;DHT22;13350;50.984;5.822;2023-04-03T07:53:40;5.00;99.90
24452;DHT22;13350;50.984;5.822;2023-04-03T07:56:08;5.10;99.90
24452;DHT22;13350;50.984;5.822;2023-04-03T07:58:35;5.10;99.90
24452;DHT22;13350;50.984;5.822;2023-04-03T08:01:03;5.00;99.90
24452;DHT22;13350;50.984;5.822;2023-04-03T08:03:30;4.90;99.90
24452;DHT22;13350;50.984;5.822;2023-04-03T08:06:02;4.90;99.90
24452;DHT22;13350;50.984;5.822;2023-04-03T08:08:31;5.00;99.90
24452;DHT22;13350;50.984;5.822;2023-04-03T08:11:00;5.00;99.90
24452;DHT22;13350;50.984;5.822;2023-04-03T08:13:28;4.90;99.90
24452;DHT22;13350;50.984;5.822;2023-04-03T08:15:56;4.80;99.90
24452;DHT22;13350;50.984;5.822;2023-04-03T08:18:25;4.80;99.90
24452;DHT22;13350;50.984;5.822;2023-04-03T08:20:52;4.90;99.90
24452;DHT22;13350;50.984;5.822;2023-04-03T08:23:19;4.90;99.90
24452;DHT22;13350;50.984;5.822;2023-04-03T08:25:48;5.00;99.90
24452;DHT22;13350;50.984;5.822;2023-04-03T08:28:16;5.10;99.90
24452;DHT22;13350;50.984;5.822;2023-04-03T08:30:44;5.10;99.90
24452;DHT22;13350;50.984;5.822;2023-04-03T08:33:11;5.50;99.90
24452;DHT22;13350;50.984;5.822;2023-04-03T08:35:39;5.70;99.90
24452;DHT22;13350;50.984;5.822;2023-04-03T08:38:07;5.70;99.90
24452;DHT22;13350;50.984;5.822;2023-04-03T08:40:34;5.80;99.90
24452;DHT22;13350;50.984;5.822;2023-04-03T08:43:19;5.90;99.90
24452;DHT22;13350;50.984;5.822;2023-04-03T08:45:51;6.10;99.90
24452;DHT22;13350;50.984;5.822;2023-04-03T08:48:22;6.20;99.90
24452;DHT22;13350;50.984;5.822;2023-04-03T08:50:54;6.30;99.90
24452;DHT22;13350;50.984;5.822;2023-04-03T08:53:24;6.10;99.90
24452;DHT22;13350;50.984;5.822;2023-04-03T08:55:53;6.40;99.90
24452;DHT22;13350;50.984;5.822;2023-04-03T08:58:24;6.60;99.90
24452;DHT22;13350;50.984;5.822;2023-04-03T09:00:56;6.30;99.90
24452;DHT22;13350;50.984;5.822;2023-04-03T09:03:24;6.40;99.90
24452;DHT22;13350;50.984;5.822;2023-04-03T09:05:55;7.00;99.90
24452;DHT22;13350;50.984;5.822;2023-04-03T09:08:26;7.70;99.90
24452;DHT22;13350;50.984;5.822;2023-04-03T09:11:06;7.80;99.90
24452;DHT22;13350;50.984;5.822;2023-04-03T09:13:43;8.00;99.90
24452;DHT22;13350;50.984;5.822;2023-04-03T09:16:21;8.70;99.90
24452;DHT22;13350;50.984;5.822;2023-04-03T09:18:57;9.20;99.90
24452;DHT22;13350;50.984;5.822;2023-04-03T09:21:32;9.50;99.90
24452;DHT22;13350;50.984;5.822;2023-04-03T09:24:01;9.80;99.90
24452;DHT22;13350;50.984;5.822;2023-04-03T09:26:34;9.70;99.90
24452;DHT22;13350;50.984;5.822;2023-04-03T09:29:07;9.50;99.90
24452;DHT22;13350;50.984;5.822;2023-04-03T09:31:37;9.30;99.90
24452;DHT22;13350;50.984;5.822;2023-04-03T09:34:10;9.60;99.90
24452;DHT22;13350;50.984;5.822;2023-04-03T09:36:44;9.50;99.90
24452;DHT22;13350;50.984;5.822;2023-04-03T09:39:14;9.30;99.90
24452;DHT22;13350;50.984;5.822;2023-04-03T09:41:42;9.20;99.90
24452;DHT22;13350;50.984;5.822;2023-04-03T09:44:25;9.60;99.90
24452;DHT22;13350;50.984;5.822;2023-04-03T09:46:52;9.70;99.90
24452;DHT22;13350;50.984;5.822;2023-04-03T09:49:19;9.30;99.90
24452;DHT22;13350;50.984;5.822;2023-04-03T09:51:47;9.20;99.90
24452;DHT22;13350;50.984;5.822;2023-04-03T09:54:32;9.70;99.90
24452;DHT22;13350;50.984;5.822;2023-04-03T09:57:06;9.90;99.90
24452;DHT22;13350;50.984;5.822;2023-04-03T09:59:35;10.10;99.90
24452;DHT22;13350;50.984;5.822;2023-04-03T10:02:14;10.20;99.90
24452;DHT22;13350;50.984;5.822;2023-04-03T10:04:45;10.30;99.90
24452;DHT22;13350;50.984;5.822;2023-04-03T10:07:27;10.70;99.90
24452;DHT22;13350;50.984;5.822;2023-04-03T10:09:56;10.20;99.90
24452;DHT22;13350;50.984;5.822;2023-04-03T10:12:24;10.30;99.20
24452;DHT22;13350;50.984;5.822;2023-04-03T10:14:57;10.70;98.20
24452;DHT22;13350;50.984;5.822;2023-04-03T10:17:35;10.40;99.10
24452;DHT22;13350;50.984;5.822;2023-04-03T10:20:10;10.10;99.60
24452;DHT22;13350;50.984;5.822;2023-04-03T10:22:51;10.40;99.90
24452;DHT22;13350;50.984;5.822;2023-04-03T10:25:25;10.30;99.90
24452;DHT22;13350;50.984;5.822;2023-04-03T10:27:56;10.30;99.30
24452;DHT22;13350;50.984;5.822;2023-04-03T10:30:36;10.20;98.20
24452;DHT22;13350;50.984;5.822;2023-04-03T10:33:20;10.30;97.80
24452;DHT22;13350;50.984;5.822;2023-04-03T10:35:58;10.40;96.80
24452;DHT22;13350;50.984;5.822;2023-04-03T10:38:35;10.60;99.20
24452;DHT22;13350;50.984;5.822;2023-04-03T10:41:12;11.00;98.50
24452;DHT22;13350;50.984;5.822;2023-04-03T10:43:46;10.80;94.60
24452;DHT22;13350;50.984;5.822;2023-04-03T10:46:23;10.50;94.70
24452;DHT22;13350;50.984;5.822;2023-04-03T10:49:01;10.70;95.70
24452;DHT22;13350;50.984;5.822;2023-04-03T10:51:39;10.70;95.60
24452;DHT22;13350;50.984;5.822;2023-04-03T10:54:12;10.70;94.20
24452;DHT22;13350;50.984;5.822;2023-04-03T10:56:42;11.00;95.50
24452;DHT22;13350;50.984;5.822;2023-04-03T10:59:21;11.20;95.00
24452;DHT22;13350;50.984;5.822;2023-04-03T11:01:55;11.20;94.40
24452;DHT22;13350;50.984;5.822;2023-04-03T11:04:27;10.80;94.40
24452;DHT22;13350;50.984;5.822;2023-04-03T11:07:00;10.80;93.70
24452;DHT22;13350;50.984;5.822;2023-04-03T11:09:30;11.40;93.40
24452;DHT22;13350;50.984;5.822;2023-04-03T11:12:02;11.50;91.10
24452;DHT22;13350;50.984;5.822;2023-04-03T11:14:32;11.40;94.10
24452;DHT22;13350;50.984;5.822;2023-04-03T11:17:22;11.10;92.80
24452;DHT22;13350;50.984;5.822;2023-04-03T11:19:59;11.60;94.30
24452;DHT22;13350;50.984;5.822;2023-04-03T11:22:30;12.60;92.30
24452;DHT22;13350;50.984;5.822;2023-04-03T11:25:04;12.40;90.60
24452;DHT22;13350;50.984;5.822;2023-04-03T11:27:40;11.40;91.60
24452;DHT22;13350;50.984;5.822;2023-04-03T11:30:14;12.00;94.20
24452;DHT22;13350;50.984;5.822;2023-04-03T11:33:18;12.20;93.90
24452;DHT22;13350;50.984;5.822;2023-04-03T11:35:51;11.80;92.70
24452;DHT22;13350;50.984;5.822;2023-04-03T11:38:22;11.70;93.00
24452;DHT22;13350;50.984;5.822;2023-04-03T11:40:52;12.20;92.60
24452;DHT22;13350;50.984;5.822;2023-04-03T11:43:25;12.50;91.60
24452;DHT22;13350;50.984;5.822;2023-04-03T11:45:55;12.60;91.80
24452;DHT22;13350;50.984;5.822;2023-04-03T11:48:48;11.50;90.80
24452;DHT22;13350;50.984;5.822;2023-04-03T11:51:38;11.80;92.80
24452;DHT22;13350;50.984;5.822;2023-04-03T11:54:43;11.30;93.70
24452;DHT22;13350;50.984;5.822;2023-04-03T11:57:44;10.80;92.70
24452;DHT22;13350;50.984;5.822;2023-04-03T12:06:51;12.00;92.40
24452;DHT22;13350;50.984;5.822;2023-04-03T12:09:27;11.90;91.00
24452;DHT22;13350;50.984;5.822;2023-04-03T12:11:56;12.20;92.00
24452;DHT22;13350;50.984;5.822;2023-04-03T12:14:24;11.80;91.80
24452;DHT22;13350;50.984;5.822;2023-04-03T12:16:53;11.40;90.60
24452;DHT22;13350;50.984;5.822;2023-04-03T12:19:36;11.00;92.30
24452;DHT22;13350;50.984;5.822;2023-04-03T12:22:10;11.50;91.60
24452;DHT22;13350;50.984;5.822;2023-04-03T12:24:39;11.80;92.50
24452;DHT22;13350;50.984;5.822;2023-04-03T12:27:29;12.30;90.60
24452;DHT22;13350;50.984;5.822;2023-04-03T12:30:18;12.20;88.40
24452;DHT22;13350;50.984;5.822;2023-04-03T12:33:17;12.50;85.10
24452;DHT22;13350;50.984;5.822;2023-04-03T12:35:57;12.80;86.10
24452;DHT22;13350;50.984;5.822;2023-04-03T12:38:51;12.90;90.90
24452;DHT22;13350;50.984;5.822;2023-04-03T12:41:29;12.80;84.30
24452;DHT22;13350;50.984;5.822;2023-04-03T12:44:12;12.20;87.10
24452;DHT22;13350;50.984;5.822;2023-04-03T12:46:45;12.10;91.00
24452;DHT22;13350;50.984;5.822;2023-04-03T12:49:26;12.10;86.50
24452;DHT22;13350;50.984;5.822;2023-04-03T12:51:57;11.40;90.20
24452;DHT22;13350;50.984;5.822;2023-04-03T12:54:31;11.10;90.60
24452;DHT22;13350;50.984;5.822;2023-04-03T12:57:16;10.70;92.40
24452;DHT22;13350;50.984;5.822;2023-04-03T12:59:44;10.90;90.70
24452;DHT22;13350;50.984;5.822;2023-04-03T13:02:24;11.70;90.50
24452;DHT22;13350;50.984;5.822;2023-04-03T13:04:53;11.20;93.40
24452;DHT22;13350;50.984;5.822;2023-04-03T13:07:27;10.60;92.40
24452;DHT22;13350;50.984;5.822;2023-04-03T13:09:59;10.30;91.30
24452;DHT22;13350;50.984;5.822;2023-04-03T13:12:27;10.20;91.50
24452;DHT22;13350;50.984;5.822;2023-04-03T13:14:56;10.50;93.80
24452;DHT22;13350;50.984;5.822;2023-04-03T13:17:24;10.60;90.70
24452;DHT22;13350;50.984;5.822;2023-04-03T13:19:53;10.80;91.20
24452;DHT22;13350;50.984;5.822;2023-04-03T13:22:27;11.20;90.70
24452;DHT22;13350;50.984;5.822;2023-04-03T13:24:59;11.60;91.80
24452;DHT22;13350;50.984;5.822;2023-04-03T13:27:29;11.90;92.10
24452;DHT22;13350;50.984;5.822;2023-04-03T13:29:59;12.30;88.60
24452;DHT22;13350;50.984;5.822;2023-04-03T13:32:29;12.30;86.60
24452;DHT22;13350;50.984;5.822;2023-04-03T13:34:57;11.50;87.20
24452;DHT22;13350;50.984;5.822;2023-04-03T13:37:26;11.50;88.40
24452;DHT22;13350;50.984;5.822;2023-04-03T13:40:00;11.70;89.30
24452;DHT22;13350;50.984;5.822;2023-04-03T13:42:30;11.90;90.00
24452;DHT22;13350;50.984;5.822;2023-04-03T13:45:17;11.10;90.60
24452;DHT22;13350;50.984;5.822;2023-04-03T13:47:47;11.20;90.20
24452;DHT22;13350;50.984;5.822;2023-04-03T13:50:20;11.90;91.00
24452;DHT22;13350;50.984;5.822;2023-04-03T13:52:50;12.00;92.30
24452;DHT22;13350;50.984;5.822;2023-04-03T13:55:23;12.00;87.10
24452;DHT22;13350;50.984;5.822;2023-04-03T13:57:54;12.30;90.30
24452;DHT22;13350;50.984;5.822;2023-04-03T14:00:36;12.40;86.10
24452;DHT22;13350;50.984;5.822;2023-04-03T14:03:13;12.40;86.60
24452;DHT22;13350;50.984;5.822;2023-04-03T14:05:40;12.50;86.70
24452;DHT22;13350;50.984;5.822;2023-04-03T14:08:08;12.20;89.40
24452;DHT22;13350;50.984;5.822;2023-04-03T14:10:37;12.30;85.10
24452;DHT22;13350;50.984;5.822;2023-04-03T14:13:04;12.60;84.20
24452;DHT22;13350;50.984;5.822;2023-04-03T14:15:32;12.40;78.90
24452;DHT22;13350;50.984;5.822;2023-04-03T14:17:59;12.70;81.60
24452;DHT22;13350;50.984;5.822;2023-04-03T14:20:27;12.70;79.00
24452;DHT22;13350;50.984;5.822;2023-04-03T14:22:54;12.40;81.00
24452;DHT22;13350;50.984;5.822;2023-04-03T14:25:22;11.80;80.00
24452;DHT22;13350;50.984;5.822;2023-04-03T14:27:53;11.90;84.10
24452;DHT22;13350;50.984;5.822;2023-04-03T14:30:23;12.10;84.20
24452;DHT22;13350;50.984;5.822;2023-04-03T14:32:51;12.70;81.60
24452;DHT22;13350;50.984;5.822;2023-04-03T14:35:18;12.60;77.20
24452;DHT22;13350;50.984;5.822;2023-04-03T14:37:46;12.30;78.80
24452;DHT22;13350;50.984;5.822;2023-04-03T14:40:15;12.60;79.00
24452;DHT22;13350;50.984;5.822;2023-04-03T14:42:43;13.20;79.40
24452;DHT22;13350;50.984;5.822;2023-04-03T14:45:12;13.40;87.60
24452;DHT22;13350;50.984;5.822;2023-04-03T14:47:44;13.00;78.30
24452;DHT22;13350;50.984;5.822;2023-04-03T14:50:15;13.20;80.90
24452;DHT22;13350;50.984;5.822;2023-04-03T14:52:44;13.30;80.30
24452;DHT22;13350;50.984;5.822;2023-04-03T14:55:14;13.40;80.50
24452;DHT22;13350;50.984;5.822;2023-04-03T14:57:41;13.00;74.90
24452;DHT22;13350;50.984;5.822;2023-04-03T15:00:15;13.00;73.00
24452;DHT22;13350;50.984;5.822;2023-04-03T15:02:43;12.90;75.30
24452;DHT22;13350;50.984;5.822;2023-04-03T15:05:11;13.00;82.70
24452;DHT22;13350;50.984;5.822;2023-04-03T15:07:41;13.40;79.10
24452;DHT22;13350;50.984;5.822;2023-04-03T15:10:17;13.20;78.40
24452;DHT22;13350;50.984;5.822;2023-04-03T15:12:46;12.90;79.90
24452;DHT22;13350;50.984;5.822;2023-04-03T15:15:16;12.60;76.70
24452;DHT22;13350;50.984;5.822;2023-04-03T15:17:45;12.30;76.50
24452;DHT22;13350;50.984;5.822;2023-04-03T15:20:16;12.20;79.40
24452;DHT22;13350;50.984;5.822;2023-04-03T15:22:44;12.60;79.20
24452;DHT22;13350;50.984;5.822;2023-04-03T15:25:11;12.40;78.40
24452;DHT22;13350;50.984;5.822;2023-04-03T15:27:39;12.00;76.80
24452;DHT22;13350;50.984;5.822;2023-04-03T15:30:10;11.80;78.60
24452;DHT22;13350;50.984;5.822;2023-04-03T15:32:39;12.30;81.60
24452;DHT22;13350;50.984;5.822;2023-04-03T15:35:07;12.10;79.70
24452;DHT22;13350;50.984;5.822;2023-04-03T15:37:34;12.30;75.20
24452;DHT22;13350;50.984;5.822;2023-04-03T15:40:02;12.20;78.90
24452;DHT22;13350;50.984;5.822;2023-04-03T15:42:29;12.00;78.00
24452;DHT22;13350;50.984;5.822;2023-04-03T15:44:57;12.30;79.90
24452;DHT22;13350;50.984;5.822;2023-04-03T15:47:24;11.90;79.90
24452;DHT22;13350;50.984;5.822;2023-04-03T15:49:53;11.50;79.70
24452;DHT22;13350;50.984;5.822;2023-04-03T15:52:21;11.60;80.80
24452;DHT22;13350;50.984;5.822;2023-04-03T15:54:49;11.40;80.50
24452;DHT22;13350;50.984;5.822;2023-04-03T15:57:16;11.30;83.40
24452;DHT22;13350;50.984;5.822;2023-04-03T15:59:43;11.40;83.60
24452;DHT22;13350;50.984;5.822;2023-04-03T16:02:11;11.40;85.20
24452;DHT22;13350;50.984;5.822;2023-04-03T16:04:39;11.50;84.00